createdAt,value
2022-09-07T00:06:04.707Z,16.20
2022-09-07T00:11:28.889Z,16.20
2022-09-07T00:22:31.841Z,16.20
2022-09-07T00:27:47.002Z,16.20
2022-09-07T00:33:10.925Z,16.10
2022-09-07T00:38:47.680Z,16.10
2022-09-07T00:44:44.340Z,16.10
2022-09-07T00:50:52.535Z,16.10
2022-09-07T00:56:45.355Z,16.10
2022-09-07T01:01:56.219Z,16.30
2022-09-07T01:06:59.071Z,16.30
2022-09-07T01:12:02.809Z,16.30
2022-09-07T01:17:25.075Z,16.10
2022-09-07T01:22:36.787Z,16.00
2022-09-07T01:27:57.802Z,15.90
2022-09-07T01:33:02.650Z,15.80
2022-09-07T01:38:37.073Z,15.80
2022-09-07T01:43:45.423Z,15.80
2022-09-07T01:48:50.773Z,15.80
2022-09-07T01:54:04.727Z,15.80
2022-09-07T01:59:18.810Z,15.80
2022-09-07T02:04:39.241Z,15.80
2022-09-07T02:09:47.522Z,15.80
2022-09-07T02:14:57.161Z,15.80
2022-09-07T02:20:12.671Z,15.70
2022-09-07T02:25:22.792Z,15.70
2022-09-07T02:30:28.023Z,15.70
2022-09-07T02:35:30.450Z,15.60
2022-09-07T02:40:46.360Z,15.60
2022-09-07T02:45:58.628Z,15.60
2022-09-07T02:51:48.591Z,15.60
2022-09-07T02:57:25.401Z,15.50
2022-09-07T03:03:02.396Z,15.50
2022-09-07T03:09:07.667Z,15.50
2022-09-07T03:14:54.491Z,15.40
2022-09-07T03:20:04.619Z,15.30
2022-09-07T03:31:08.939Z,15.40
2022-09-07T03:36:27.457Z,15.40
2022-09-07T03:41:31.015Z,15.60
2022-09-07T03:46:37.381Z,15.70
2022-09-07T03:51:42.407Z,15.70
2022-09-07T03:56:45.792Z,15.70
2022-09-07T04:01:48.241Z,15.70
2022-09-07T04:06:59.962Z,15.60
2022-09-07T04:12:09.259Z,15.60
2022-09-07T04:17:16.102Z,15.50
2022-09-07T04:22:20.158Z,15.40
2022-09-07T04:27:24.697Z,15.40
2022-09-07T04:32:29.837Z,15.40
2022-09-07T04:37:33.646Z,15.40
2022-09-07T04:42:36.104Z,15.40
2022-09-07T04:47:38.612Z,15.30
2022-09-07T04:52:41.476Z,15.30
2022-09-07T04:57:45.787Z,15.30
2022-09-07T05:02:48.060Z,15.30
2022-09-07T05:07:50.371Z,15.30
2022-09-07T05:12:52.628Z,15.20
2022-09-07T05:17:54.919Z,15.20
2022-09-07T05:23:00.609Z,15.20
2022-09-07T05:28:04.038Z,15.30
2022-09-07T05:33:08.324Z,15.20
2022-09-07T05:38:10.548Z,15.20
2022-09-07T05:43:12.950Z,15.20
2022-09-07T05:48:15.261Z,15.20
2022-09-07T05:53:21.540Z,15.20
2022-09-07T05:58:25.377Z,15.20
2022-09-07T06:03:29.376Z,15.20
2022-09-07T06:08:33.748Z,15.20
2022-09-07T06:13:36.425Z,15.20
2022-09-07T06:18:40.701Z,15.20
2022-09-07T06:23:46.685Z,15.20
2022-09-07T06:28:52.878Z,15.20
2022-09-07T06:33:58.926Z,15.30
2022-09-07T06:39:02.795Z,15.40
2022-09-07T06:44:05.230Z,15.50
2022-09-07T06:49:07.622Z,15.60
2022-09-07T06:59:35.225Z,16.30
2022-09-07T07:04:40.855Z,16.50
2022-09-07T07:09:43.569Z,16.70
2022-09-07T07:14:47.412Z,16.90
2022-09-07T07:19:54.842Z,17.20
2022-09-07T07:31:18.905Z,17.20
2022-09-07T07:37:13.241Z,17.10
2022-09-07T08:18:10.237Z,18.30
2022-09-07T08:28:57.761Z,18.80
2022-09-07T08:34:05.356Z,18.90
2022-09-07T08:39:09.298Z,19.00
2022-09-07T08:44:22.303Z,19.20
2022-09-07T08:49:51.715Z,19.50
2022-09-07T08:55:29.992Z,19.80
2022-09-07T09:00:45.974Z,20.30
2022-09-07T09:06:07.993Z,20.00
2022-09-07T09:11:51.428Z,19.90
2022-09-07T09:17:22.352Z,19.80
2022-09-07T09:22:36.421Z,20.00
2022-09-07T09:28:35.477Z,20.20
2022-09-07T09:33:46.749Z,20.80
2022-09-07T09:39:01.106Z,20.30
2022-09-07T09:44:04.308Z,19.70
2022-09-07T09:49:20.617Z,19.70
2022-09-07T09:54:46.114Z,19.50
2022-09-07T10:00:10.322Z,19.70
2022-09-07T10:05:34.155Z,20.10
2022-09-07T10:10:45.749Z,20.00
2022-09-07T10:21:37.444Z,20.20
2022-09-07T10:26:48.984Z,20.30
2022-09-07T10:32:16.587Z,20.80
2022-09-07T10:37:34.047Z,21.20
2022-09-07T10:48:22.887Z,21.40
2022-09-07T10:54:32.827Z,21.00
2022-09-07T11:00:09.715Z,20.70
2022-09-07T11:05:41.333Z,20.10
2022-09-07T11:18:08.392Z,21.00
2022-09-07T11:30:05.106Z,21.10
2022-09-07T11:35:53.241Z,20.80
2022-09-07T11:41:33.888Z,20.50
2022-09-07T11:46:54.426Z,20.30
2022-09-07T11:52:05.306Z,19.60
2022-09-07T11:57:44.660Z,19.60
2022-09-07T12:03:24.620Z,19.70
2022-09-07T12:09:14.751Z,19.40
2022-09-07T12:14:47.049Z,19.00
2022-09-07T12:20:09.142Z,18.80
2022-09-07T12:25:19.443Z,18.30
2022-09-07T12:30:52.590Z,17.80
2022-09-07T12:36:25.250Z,17.50
2022-09-07T12:41:47.412Z,17.20
2022-09-07T12:47:37.801Z,17.00
2022-09-07T12:53:07.989Z,17.10
2022-09-07T12:59:01.810Z,17.30
2022-09-07T13:04:35.180Z,17.50
2022-09-07T13:09:46.810Z,17.40
2022-09-07T13:15:05.905Z,17.10
2022-09-07T13:20:27.121Z,16.90
2022-09-07T13:25:37.903Z,16.90
2022-09-07T13:31:01.233Z,16.90
2022-09-07T13:36:16.396Z,17.30
2022-09-07T13:41:35.134Z,18.10
2022-09-07T13:46:58.000Z,18.50
2022-09-07T13:52:13.465Z,18.60
2022-09-07T13:57:32.051Z,18.70
2022-09-07T14:02:37.462Z,19.10
2022-09-07T14:07:49.726Z,19.20
2022-09-07T14:13:21.062Z,19.10
2022-09-07T14:18:33.509Z,19.00
2022-09-07T14:23:40.647Z,19.10
2022-09-07T14:28:55.469Z,19.20
2022-09-07T14:34:03.526Z,19.30
2022-09-07T14:39:19.467Z,19.40
2022-09-07T14:44:39.204Z,19.40
2022-09-07T14:56:17.174Z,19.80
2022-09-07T15:02:08.611Z,20.00
2022-09-07T15:13:43.921Z,20.20
2022-09-07T15:19:43.645Z,20.20
2022-09-07T15:25:03.895Z,19.90
2022-09-07T15:30:07.812Z,20.30
2022-09-07T15:35:46.971Z,20.30
2022-09-07T15:41:51.615Z,20.20
2022-09-07T15:53:01.020Z,20.10
2022-09-07T15:58:11.865Z,20.10
2022-09-07T16:03:17.960Z,20.20
2022-09-07T16:08:42.307Z,20.10
2022-09-07T16:14:16.940Z,20.00
2022-09-07T16:19:21.880Z,20.20
2022-09-07T16:24:32.178Z,20.00
2022-09-07T16:29:36.251Z,20.00
2022-09-07T16:34:49.400Z,19.60
2022-09-07T16:39:54.558Z,19.50
2022-09-07T16:50:27.103Z,19.40
2022-09-07T16:55:31.001Z,19.40
2022-09-07T17:01:02.481Z,19.40
2022-09-07T17:06:47.633Z,19.60
2022-09-07T17:12:00.957Z,19.60
2022-09-07T17:17:09.518Z,19.60
2022-09-07T17:22:15.335Z,19.20
2022-09-07T17:27:29.440Z,19.00
2022-09-07T17:32:34.289Z,19.30
2022-09-07T17:37:45.218Z,19.90
2022-09-07T17:48:30.701Z,19.90
2022-09-07T17:53:45.590Z,19.10
2022-09-07T18:04:51.866Z,19.30
2022-09-07T18:11:44.858Z,19.40
2022-09-07T18:16:19.190Z,19.10
2022-09-07T18:21:59.395Z,18.50
2022-09-07T23:11:56.166Z,16.10
2022-09-07T23:17:29.501Z,16.10
2022-09-07T23:23:46.009Z,16.10
2022-09-07T23:45:43.273Z,16.10
2022-09-07T23:57:09.301Z,15.90
